createdAt,value
2019-05-07T00:00:03.380Z,7.63
2019-05-07T00:01:02.843Z,7.55
2019-05-07T00:02:02.709Z,7.62
2019-05-07T00:03:03.286Z,7.58
2019-05-07T00:04:02.150Z,7.58
2019-05-07T00:05:02.741Z,7.62
2019-05-07T00:06:02.818Z,7.58
2019-05-07T00:07:02.505Z,7.54
2019-05-07T00:08:03.022Z,7.52
2019-05-07T00:09:03.200Z,7.48
2019-05-07T00:10:03.343Z,7.47
2019-05-07T00:11:02.443Z,7.44
2019-05-07T00:12:04.713Z,7.45
2019-05-07T00:13:02.346Z,7.37
2019-05-07T00:14:03.130Z,7.41
2019-05-07T00:15:04.466Z,7.24
2019-05-07T00:16:02.604Z,7.33
2019-05-07T00:17:02.241Z,7.34
2019-05-07T00:18:03.211Z,7.41
2019-05-07T00:19:02.127Z,7.44
2019-05-07T00:20:02.337Z,7.39
2019-05-07T00:21:03.504Z,7.48
2019-05-07T00:22:02.461Z,7.50
2019-05-07T00:23:02.927Z,7.48
2019-05-07T00:24:02.294Z,7.39
2019-05-07T00:25:03.123Z,7.34
2019-05-07T00:26:02.365Z,7.37
2019-05-07T00:27:02.802Z,7.41
2019-05-07T00:28:02.760Z,7.36
2019-05-07T00:29:02.310Z,7.32
2019-05-07T00:30:02.879Z,7.29
2019-05-07T00:31:02.929Z,7.29
2019-05-07T00:32:02.992Z,7.14
2019-05-07T00:33:02.794Z,7.11
2019-05-07T00:34:02.870Z,7.08
2019-05-07T00:35:02.501Z,7.07
2019-05-07T00:36:02.591Z,6.90
2019-05-07T00:37:02.241Z,6.91
2019-05-07T00:38:02.542Z,6.86
2019-05-07T00:39:02.807Z,6.83
2019-05-07T00:40:02.758Z,6.76
2019-05-07T00:41:02.805Z,6.79
2019-05-07T00:42:03.057Z,6.76
2019-05-07T00:43:02.683Z,6.89
2019-05-07T00:44:03.255Z,6.89
2019-05-07T00:45:15.928Z,6.83
2019-05-07T00:46:02.762Z,6.75
2019-05-07T00:47:02.236Z,6.78
2019-05-07T00:48:02.902Z,6.75
2019-05-07T00:49:02.388Z,6.75
2019-05-07T00:50:03.328Z,6.81
2019-05-07T00:51:02.322Z,6.71
2019-05-07T00:52:02.861Z,6.81
2019-05-07T00:53:02.201Z,6.81
2019-05-07T00:54:02.850Z,6.79
2019-05-07T00:55:02.925Z,6.79
2019-05-07T00:56:01.965Z,6.71
2019-05-07T00:57:03.131Z,6.72
2019-05-07T00:58:02.359Z,6.69
2019-05-07T00:59:02.195Z,6.72
2019-05-07T01:00:02.289Z,6.60
2019-05-07T01:01:02.565Z,6.64
2019-05-07T01:02:02.226Z,6.58
2019-05-07T01:03:03.078Z,6.60
2019-05-07T01:04:02.619Z,6.58
2019-05-07T01:05:02.965Z,6.60
2019-05-07T01:06:02.047Z,6.61
2019-05-07T01:07:02.768Z,6.53
2019-05-07T01:08:02.599Z,6.48
2019-05-07T01:09:03.180Z,6.51
2019-05-07T01:10:02.163Z,6.55
2019-05-07T01:11:02.233Z,6.45
2019-05-07T01:12:03.098Z,6.55
2019-05-07T01:13:02.768Z,6.57
2019-05-07T01:14:02.774Z,6.46
2019-05-07T01:15:02.936Z,6.35
2019-05-07T01:16:02.490Z,6.27
2019-05-07T01:17:02.426Z,6.32
2019-05-07T01:18:02.895Z,6.24
2019-05-07T01:19:02.054Z,6.25
2019-05-07T01:20:02.934Z,6.16
2019-05-07T01:21:02.415Z,6.25
2019-05-07T01:22:03.212Z,6.19
2019-05-07T01:23:02.607Z,6.16
2019-05-07T01:24:03.272Z,6.11
2019-05-07T01:25:02.299Z,6.20
2019-05-07T01:26:03.044Z,6.14
2019-05-07T01:27:02.169Z,6.16
2019-05-07T01:28:02.640Z,6.19
2019-05-07T01:29:02.894Z,6.24
2019-05-07T01:30:02.479Z,6.24
2019-05-07T01:31:02.191Z,6.16
2019-05-07T01:32:03.139Z,6.16
2019-05-07T01:33:02.824Z,5.99
2019-05-07T01:34:02.570Z,6.16
2019-05-07T01:35:02.441Z,6.06
2019-05-07T01:36:02.410Z,6.11
2019-05-07T01:37:02.657Z,6.03
2019-05-07T01:38:03.116Z,5.98
2019-05-07T01:39:02.655Z,6.03
2019-05-07T01:40:03.131Z,5.99
2019-05-07T01:41:02.824Z,5.87
2019-05-07T01:42:02.110Z,5.85
2019-05-07T01:43:02.566Z,5.75
2019-05-07T01:44:02.031Z,5.80
2019-05-07T01:45:02.327Z,5.87
2019-05-07T01:46:03.162Z,5.87
2019-05-07T01:47:02.520Z,5.81
2019-05-07T01:48:04.172Z,5.84
2019-05-07T01:49:03.089Z,5.74
2019-05-07T01:50:03.072Z,5.73
2019-05-07T01:51:03.227Z,5.66
2019-05-07T01:52:02.472Z,5.65
2019-05-07T01:53:01.020Z,5.63
2019-05-07T01:54:02.214Z,5.65
2019-05-07T01:55:03.272Z,5.58
2019-05-07T01:56:03.025Z,5.58
2019-05-07T01:57:02.898Z,5.56
2019-05-07T01:58:04.562Z,5.62
2019-05-07T01:59:02.417Z,5.52
2019-05-07T02:00:02.554Z,5.45
2019-05-07T02:01:02.788Z,5.47
2019-05-07T02:02:02.887Z,5.55
2019-05-07T02:03:02.690Z,5.45
2019-05-07T02:04:02.319Z,5.42
2019-05-07T02:05:03.013Z,5.41
2019-05-07T02:06:02.191Z,5.47
2019-05-07T02:07:02.846Z,5.49
2019-05-07T02:08:02.815Z,5.47
2019-05-07T02:09:02.344Z,5.47
2019-05-07T02:10:02.812Z,5.52
2019-05-07T02:11:02.098Z,5.51
2019-05-07T02:12:02.446Z,5.49
2019-05-07T02:13:02.295Z,5.51
2019-05-07T02:14:02.019Z,5.56
2019-05-07T02:15:02.706Z,5.56
2019-05-07T02:16:01.873Z,5.44
2019-05-07T02:17:02.938Z,5.55
2019-05-07T02:18:01.939Z,5.47
2019-05-07T02:19:02.194Z,5.42
2019-05-07T02:20:02.617Z,5.40
2019-05-07T02:21:03.054Z,5.42
2019-05-07T02:22:02.741Z,5.44
2019-05-07T02:23:02.579Z,5.37
2019-05-07T02:24:00.734Z,5.38
2019-05-07T02:25:03.113Z,5.33
2019-05-07T02:26:02.427Z,5.32
2019-05-07T02:27:02.827Z,5.27
2019-05-07T02:28:02.221Z,5.17
2019-05-07T02:29:02.569Z,5.15
2019-05-07T02:30:04.217Z,5.15
2019-05-07T02:31:03.811Z,5.11
2019-05-07T02:32:04.182Z,5.19
2019-05-07T02:33:03.427Z,5.09
2019-05-07T02:34:02.718Z,5.11
2019-05-07T02:35:03.646Z,5.09
2019-05-07T02:36:02.999Z,5.05
2019-05-07T02:37:03.803Z,4.99
2019-05-07T02:38:03.124Z,4.97
2019-05-07T02:39:03.623Z,5.01
2019-05-07T02:40:04.195Z,4.86
2019-05-07T02:41:02.914Z,4.87
2019-05-07T02:42:03.485Z,4.77
2019-05-07T02:43:02.921Z,4.80
2019-05-07T02:44:04.010Z,4.74
2019-05-07T02:45:03.720Z,4.91
2019-05-07T02:46:19.815Z,4.80
2019-05-07T02:47:04.062Z,4.77
2019-05-07T02:48:03.262Z,4.80
2019-05-07T02:49:03.189Z,4.77
2019-05-07T02:50:03.081Z,4.86
2019-05-07T02:51:00.407Z,4.86
2019-05-07T02:52:00.406Z,4.77
2019-05-07T02:53:03.913Z,4.77
2019-05-07T02:54:03.355Z,4.84
2019-05-07T02:55:03.500Z,4.74
2019-05-07T02:56:03.324Z,4.79
2019-05-07T02:57:03.247Z,4.79
2019-05-07T02:58:03.270Z,4.83
2019-05-07T02:59:03.233Z,4.83
2019-05-07T03:00:04.047Z,4.75
2019-05-07T03:01:00.298Z,4.83
2019-05-07T03:02:03.363Z,4.79
2019-05-07T03:03:00.280Z,4.77
2019-05-07T03:04:03.326Z,4.80
2019-05-07T03:05:00.262Z,4.75
2019-05-07T03:06:02.711Z,4.80
2019-05-07T03:07:03.635Z,4.75
2019-05-07T03:08:03.092Z,4.71
2019-05-07T03:09:03.229Z,4.79
2019-05-07T03:10:03.383Z,4.72
2019-05-07T03:11:03.039Z,4.79
2019-05-07T03:12:00.209Z,4.80
2019-05-07T03:13:02.896Z,4.80
2019-05-07T03:14:02.970Z,4.75
2019-05-07T03:15:04.083Z,4.74
2019-05-07T03:16:03.521Z,4.80
2019-05-07T03:17:03.035Z,4.80
2019-05-07T03:18:03.034Z,4.75
2019-05-07T03:19:00.130Z,4.75
2019-05-07T03:20:02.938Z,4.80
2019-05-07T03:21:03.193Z,4.88
2019-05-07T03:22:00.088Z,4.75
2019-05-07T03:23:02.988Z,4.77
2019-05-07T03:24:03.126Z,4.83
2019-05-07T03:25:03.002Z,4.75
2019-05-07T03:26:00.054Z,4.79
2019-05-07T03:27:02.911Z,4.77
2019-05-07T03:28:00.025Z,4.83
2019-05-07T03:29:00.049Z,4.75
2019-05-07T03:30:03.940Z,4.75
2019-05-07T03:31:05.376Z,4.71
2019-05-07T03:32:05.966Z,4.74
2019-05-07T03:33:06.299Z,4.69
2019-05-07T03:34:06.294Z,4.75
2019-05-07T03:35:06.349Z,4.77
2019-05-07T03:36:06.309Z,4.77
2019-05-07T03:37:05.618Z,4.83
2019-05-07T03:38:03.562Z,4.84
2019-05-07T03:38:59.899Z,4.79
2019-05-07T03:40:03.009Z,4.69
2019-05-07T03:40:59.884Z,4.84
2019-05-07T03:42:03.107Z,4.79
2019-05-07T03:43:02.842Z,4.77
2019-05-07T03:44:03.734Z,4.87
2019-05-07T03:45:03.383Z,4.86
2019-05-07T03:46:03.300Z,4.86
2019-05-07T03:47:06.042Z,4.93
2019-05-07T03:48:03.730Z,4.80
2019-05-07T03:48:59.800Z,4.99
2019-05-07T03:50:02.993Z,4.79
2019-05-07T03:50:59.796Z,4.77
2019-05-07T03:51:59.767Z,4.87
2019-05-07T03:53:02.107Z,4.84
2019-05-07T03:54:02.448Z,4.86
2019-05-07T03:54:59.754Z,4.88
2019-05-07T03:55:59.731Z,4.88
2019-05-07T03:57:07.458Z,4.93
2019-05-07T03:58:03.128Z,4.90
2019-05-07T03:58:59.703Z,4.80
2019-05-07T03:59:59.704Z,4.84
2019-05-07T04:00:59.672Z,4.93
2019-05-07T04:02:03.064Z,4.91
2019-05-07T04:02:59.648Z,4.90
2019-05-07T04:03:59.646Z,4.88
2019-05-07T04:04:59.664Z,4.96
2019-05-07T04:05:59.674Z,4.91
2019-05-07T04:07:02.551Z,4.96
2019-05-07T04:07:59.637Z,4.99
2019-05-07T04:08:59.597Z,4.99
2019-05-07T04:09:59.589Z,5.01
2019-05-07T04:11:03.146Z,4.94
2019-05-07T04:11:59.583Z,5.01
2019-05-07T04:12:59.553Z,5.01
2019-05-07T04:14:02.364Z,5.02
2019-05-07T04:15:03.080Z,5.02
2019-05-07T04:15:59.524Z,5.06
2019-05-07T04:17:14.484Z,5.05
2019-05-07T04:18:03.309Z,5.09
2019-05-07T04:18:59.538Z,5.09
2019-05-07T04:19:59.512Z,5.06
2019-05-07T04:20:59.469Z,5.05
2019-05-07T04:21:59.466Z,5.09
2019-05-07T04:22:59.465Z,5.08
2019-05-07T04:23:59.429Z,5.05
2019-05-07T04:24:59.424Z,5.01
2019-05-07T04:25:59.425Z,4.96
2019-05-07T04:26:59.416Z,5.05
2019-05-07T04:27:59.395Z,5.05
2019-05-07T04:28:59.393Z,5.04
2019-05-07T04:29:59.366Z,5.08
2019-05-07T04:31:02.527Z,5.09
2019-05-07T04:31:59.349Z,5.09
2019-05-07T04:32:59.336Z,5.01
2019-05-07T04:33:59.350Z,5.14
2019-05-07T04:34:59.317Z,5.08
2019-05-07T04:35:59.312Z,5.11
2019-05-07T04:36:59.315Z,5.06
2019-05-07T04:38:02.183Z,5.12
2019-05-07T04:39:03.033Z,5.11
2019-05-07T04:39:59.274Z,5.05
2019-05-07T04:40:59.263Z,5.05
2019-05-07T04:41:59.240Z,4.97
2019-05-07T04:42:59.241Z,4.99
2019-05-07T04:43:59.218Z,4.94
2019-05-07T04:44:59.222Z,4.94
2019-05-07T04:45:59.203Z,5.01
2019-05-07T04:46:59.190Z,5.01
2019-05-07T04:47:59.186Z,5.04
2019-05-07T04:48:59.192Z,5.01
2019-05-07T04:49:59.204Z,4.99
2019-05-07T04:50:59.154Z,4.90
2019-05-07T04:51:59.139Z,4.90
2019-05-07T04:52:59.197Z,4.99
2019-05-07T04:53:59.126Z,5.01
2019-05-07T04:54:59.114Z,4.99
2019-05-07T04:55:59.124Z,5.09
2019-05-07T04:56:59.114Z,4.93
2019-05-07T04:57:59.074Z,5.04
2019-05-07T04:58:59.087Z,5.01
2019-05-07T04:59:59.053Z,5.04
2019-05-07T05:00:59.078Z,4.99
2019-05-07T05:01:59.085Z,5.01
2019-05-07T05:02:59.039Z,5.01
2019-05-07T05:03:59.011Z,4.97
2019-05-07T05:04:59.006Z,5.04
2019-05-07T05:05:59.020Z,5.04
2019-05-07T05:06:59.013Z,5.08
2019-05-07T05:07:58.980Z,4.94
2019-05-07T05:08:59.006Z,5.09
2019-05-07T05:09:59.022Z,5.09
2019-05-07T05:10:58.948Z,5.05
2019-05-07T05:11:58.954Z,5.05
2019-05-07T05:12:58.945Z,5.14
2019-05-07T05:13:58.909Z,5.12
2019-05-07T05:14:58.909Z,5.08
2019-05-07T05:15:58.897Z,5.14
2019-05-07T05:16:58.964Z,5.11
2019-05-07T05:17:58.884Z,5.19
2019-05-07T05:18:58.861Z,5.15
2019-05-07T05:20:01.368Z,5.11
2019-05-07T05:20:58.838Z,5.20
2019-05-07T05:21:58.863Z,5.15
2019-05-07T05:22:58.822Z,5.11
2019-05-07T05:23:58.813Z,5.11
2019-05-07T05:24:58.803Z,5.22
2019-05-07T05:25:58.794Z,5.27
2019-05-07T05:26:58.820Z,5.22
2019-05-07T05:27:58.800Z,5.27
2019-05-07T05:28:58.752Z,5.26
2019-05-07T05:29:58.742Z,5.29
2019-05-07T05:30:58.730Z,5.26
2019-05-07T05:31:58.747Z,5.37
2019-05-07T05:33:01.435Z,5.35
2019-05-07T05:34:02.071Z,5.35
2019-05-07T05:34:58.687Z,5.30
2019-05-07T05:35:58.686Z,5.29
2019-05-07T05:36:58.675Z,5.29
2019-05-07T05:37:58.662Z,5.30
2019-05-07T05:38:58.677Z,5.35
2019-05-07T05:40:06.259Z,5.40
2019-05-07T05:40:59.651Z,5.30
2019-05-07T05:41:58.620Z,5.37
2019-05-07T05:42:58.626Z,5.42
2019-05-07T05:43:58.631Z,5.42
2019-05-07T05:44:58.589Z,5.51
2019-05-07T05:45:58.608Z,5.47
2019-05-07T05:46:58.586Z,5.56
2019-05-07T05:48:04.766Z,5.59
2019-05-07T05:48:59.599Z,5.63
2019-05-07T05:49:58.572Z,5.59
2019-05-07T05:50:58.542Z,5.80
2019-05-07T05:51:58.533Z,5.83
2019-05-07T05:52:58.509Z,5.81
2019-05-07T05:53:58.491Z,5.88
2019-05-07T05:54:58.496Z,5.88
2019-05-07T05:55:58.504Z,5.98
2019-05-07T05:56:58.474Z,6.01
2019-05-07T05:57:58.450Z,6.10
2019-05-07T05:58:58.443Z,6.14
2019-05-07T05:59:58.455Z,6.19
2019-05-07T06:00:58.443Z,6.27
2019-05-07T06:01:58.464Z,6.25
2019-05-07T06:02:58.395Z,6.39
2019-05-07T06:03:58.394Z,6.48
2019-05-07T06:04:58.397Z,6.58
2019-05-07T06:05:58.383Z,6.65
2019-05-07T06:07:08.757Z,6.72
2019-05-07T06:07:59.353Z,6.91
2019-05-07T06:08:58.334Z,6.91
2019-05-07T06:09:58.337Z,7.07
2019-05-07T06:10:58.334Z,7.19
2019-05-07T06:11:58.327Z,7.32
2019-05-07T06:12:58.309Z,7.42
2019-05-07T06:13:58.283Z,7.42
2019-05-07T06:14:58.334Z,7.50
2019-05-07T06:15:58.268Z,7.54
2019-05-07T06:16:58.253Z,7.70
2019-05-07T06:17:58.256Z,7.71
2019-05-07T06:18:58.242Z,7.74
2019-05-07T06:19:58.288Z,7.91
2019-05-07T06:20:58.207Z,7.88
2019-05-07T06:21:58.230Z,7.96
2019-05-07T06:22:58.196Z,8.02
2019-05-07T06:23:58.181Z,8.02
2019-05-07T06:24:58.188Z,8.04
2019-05-07T06:25:58.158Z,8.18
2019-05-07T06:26:58.153Z,8.17
2019-05-07T06:27:58.133Z,8.25
2019-05-07T06:28:58.122Z,8.40
2019-05-07T06:29:58.114Z,8.37
2019-05-07T06:30:58.119Z,8.42
2019-05-07T06:31:58.115Z,8.54
2019-05-07T06:32:58.097Z,8.47
2019-05-07T06:33:58.085Z,8.52
2019-05-07T06:34:58.071Z,8.54
2019-05-07T06:35:58.055Z,8.60
2019-05-07T06:36:58.050Z,8.61
2019-05-07T06:37:58.040Z,8.70
2019-05-07T06:38:58.019Z,8.79
2019-05-07T06:39:58.012Z,8.86
2019-05-07T06:40:58.037Z,8.86
2019-05-07T06:41:57.997Z,8.86
2019-05-07T06:42:57.979Z,8.96
2019-05-07T06:43:57.978Z,9.04
2019-05-07T06:44:57.958Z,9.10
2019-05-07T06:45:57.957Z,9.03
2019-05-07T06:46:57.954Z,9.16
2019-05-07T06:47:57.948Z,9.19
2019-05-07T06:48:57.944Z,9.22
2019-05-07T06:49:57.905Z,9.19
2019-05-07T06:50:57.904Z,9.22
2019-05-07T06:51:57.915Z,9.22
2019-05-07T06:52:57.897Z,9.34
2019-05-07T06:53:57.861Z,9.30
2019-05-07T06:54:57.849Z,9.30
2019-05-07T06:55:57.838Z,9.45
2019-05-07T06:56:57.828Z,9.55
2019-05-07T06:57:57.835Z,9.55
2019-05-07T06:58:57.810Z,9.67
2019-05-07T06:59:57.803Z,9.62
2019-05-07T07:00:57.799Z,9.67
2019-05-07T07:01:57.778Z,9.77
2019-05-07T07:02:57.794Z,9.81
2019-05-07T07:03:57.761Z,9.92
2019-05-07T07:04:57.756Z,9.93
2019-05-07T07:05:57.749Z,9.92
2019-05-07T07:06:57.724Z,10.02
2019-05-07T07:07:57.743Z,10.04
2019-05-07T07:08:57.710Z,10.09
2019-05-07T07:09:57.693Z,10.06
2019-05-07T07:10:57.698Z,10.20
2019-05-07T07:11:57.683Z,10.25
2019-05-07T07:12:57.670Z,10.31
2019-05-07T07:13:57.667Z,10.35
2019-05-07T07:14:58.170Z,10.32
2019-05-07T07:15:57.632Z,10.32
2019-05-07T07:16:57.638Z,10.47
2019-05-07T07:17:57.605Z,10.44
2019-05-07T07:18:57.628Z,10.47
2019-05-07T07:19:57.588Z,10.42
2019-05-07T07:20:57.572Z,10.57
2019-05-07T07:21:57.597Z,10.55
2019-05-07T07:22:57.562Z,10.60
2019-05-07T07:23:57.551Z,10.69
2019-05-07T07:24:57.540Z,10.73
2019-05-07T07:25:57.540Z,10.75
2019-05-07T07:26:57.509Z,10.76
2019-05-07T07:27:57.511Z,10.78
2019-05-07T07:28:57.511Z,10.91
2019-05-07T07:29:57.500Z,10.88
2019-05-07T07:30:57.471Z,10.93
2019-05-07T07:31:57.457Z,11.03
2019-05-07T07:32:57.455Z,11.01
2019-05-07T07:33:57.444Z,11.06
2019-05-07T07:34:57.449Z,11.09
2019-05-07T07:35:57.424Z,11.23
2019-05-07T07:37:07.885Z,11.27
2019-05-07T07:37:58.394Z,11.24
2019-05-07T07:38:57.383Z,11.28
2019-05-07T07:39:57.408Z,11.31
2019-05-07T07:40:57.369Z,11.27
2019-05-07T07:41:57.349Z,11.42
2019-05-07T07:42:57.342Z,11.38
2019-05-07T07:43:57.331Z,11.48
2019-05-07T07:44:57.341Z,11.46
2019-05-07T07:45:57.322Z,11.51
2019-05-07T07:46:57.297Z,11.54
2019-05-07T07:47:57.286Z,11.56
2019-05-07T07:49:07.992Z,11.62
2019-05-07T07:49:58.294Z,11.62
2019-05-07T07:50:57.280Z,11.66
2019-05-07T07:51:57.263Z,11.62
2019-05-07T07:52:57.239Z,11.54
2019-05-07T07:53:57.236Z,11.63
2019-05-07T07:54:57.213Z,11.70
2019-05-07T07:55:57.227Z,11.74
2019-05-07T07:56:57.194Z,11.66
2019-05-07T07:57:57.180Z,11.72
2019-05-07T07:58:57.177Z,11.78
2019-05-07T07:59:57.157Z,11.78
2019-05-07T08:00:57.161Z,11.74
2019-05-07T08:01:57.157Z,11.87
2019-05-07T08:02:57.141Z,11.87
2019-05-07T08:03:57.122Z,11.87
2019-05-07T08:04:57.107Z,11.79
2019-05-07T08:05:57.126Z,11.84
2019-05-07T08:06:57.121Z,11.88
2019-05-07T08:07:57.095Z,11.87
2019-05-07T08:08:57.066Z,11.93
2019-05-07T08:09:57.053Z,11.84
2019-05-07T08:10:57.057Z,11.87
2019-05-07T08:11:57.032Z,11.82
2019-05-07T08:12:57.026Z,11.75
2019-05-07T08:13:57.014Z,11.77
2019-05-07T08:15:13.283Z,11.88
2019-05-07T08:15:57.989Z,11.79
2019-05-07T08:16:56.979Z,11.81
2019-05-07T08:17:57.002Z,11.67
2019-05-07T08:18:56.957Z,11.75
2019-05-07T08:19:56.954Z,11.70
2019-05-07T08:20:56.942Z,11.79
2019-05-07T08:21:56.924Z,11.78
2019-05-07T08:22:56.952Z,11.84
2019-05-07T08:23:56.903Z,11.87
2019-05-07T08:24:56.893Z,11.87
2019-05-07T08:25:56.883Z,11.88
2019-05-07T08:26:56.873Z,11.88
2019-05-07T08:27:58.224Z,11.78
2019-05-07T08:28:56.866Z,11.88
2019-05-07T08:29:56.839Z,12.01
2019-05-07T08:30:56.832Z,11.97
2019-05-07T08:31:56.835Z,11.97
2019-05-07T08:32:56.821Z,11.96
2019-05-07T08:33:56.826Z,12.01
2019-05-07T08:34:56.788Z,12.00
2019-05-07T08:35:56.780Z,11.96
2019-05-07T08:36:56.768Z,12.13
2019-05-07T08:37:56.755Z,12.18
2019-05-07T08:38:56.747Z,12.23
2019-05-07T08:39:56.747Z,12.30
2019-05-07T08:40:56.733Z,12.34
2019-05-07T08:41:56.718Z,12.40
2019-05-07T08:42:56.708Z,12.55
2019-05-07T08:44:08.294Z,12.49
2019-05-07T08:44:57.730Z,12.62
2019-05-07T08:45:56.675Z,12.67
2019-05-07T08:46:56.660Z,12.88
2019-05-07T08:47:56.651Z,12.98
2019-05-07T08:48:56.642Z,13.06
2019-05-07T08:49:56.651Z,13.10
2019-05-07T08:50:56.622Z,13.07
2019-05-07T08:51:56.609Z,13.22
2019-05-07T08:52:56.597Z,13.21
2019-05-07T08:53:56.592Z,13.27
2019-05-07T08:54:56.600Z,13.38
2019-05-07T08:55:56.573Z,13.35
2019-05-07T08:56:56.581Z,13.32
2019-05-07T08:57:56.559Z,13.36
2019-05-07T08:58:56.536Z,13.41
2019-05-07T09:00:01.327Z,13.41
2019-05-07T09:00:57.530Z,13.44
2019-05-07T09:01:56.502Z,13.55
2019-05-07T09:02:56.491Z,13.59
2019-05-07T09:03:56.484Z,13.61
2019-05-07T09:04:56.483Z,13.62
2019-05-07T09:05:56.472Z,13.61
2019-05-07T09:06:56.488Z,13.55
2019-05-07T09:07:56.436Z,13.63
2019-05-07T09:08:56.427Z,13.63
2019-05-07T09:09:56.415Z,13.62
2019-05-07T09:10:56.433Z,13.61
2019-05-07T09:11:56.398Z,13.51
2019-05-07T09:12:56.404Z,13.59
2019-05-07T09:13:56.372Z,13.55
2019-05-07T09:14:56.366Z,13.63
2019-05-07T09:15:56.350Z,13.61
2019-05-07T09:16:56.356Z,13.59
2019-05-07T09:17:56.327Z,13.59
2019-05-07T09:18:56.324Z,13.61
2019-05-07T09:19:56.311Z,13.63
2019-05-07T09:20:56.297Z,13.59
2019-05-07T09:21:56.298Z,13.61
2019-05-07T09:22:56.283Z,13.62
2019-05-07T09:23:56.267Z,13.59
2019-05-07T09:24:56.258Z,13.48
2019-05-07T09:25:56.246Z,13.61
2019-05-07T09:26:56.265Z,13.61
2019-05-07T09:27:56.221Z,13.63
2019-05-07T09:28:56.212Z,13.51
2019-05-07T09:29:56.211Z,13.66
2019-05-07T09:30:56.206Z,13.62
2019-05-07T09:31:56.189Z,13.59
2019-05-07T09:32:56.208Z,13.63
2019-05-07T09:33:56.155Z,13.48
2019-05-07T09:34:56.146Z,13.54
2019-05-07T09:35:56.134Z,13.54
2019-05-07T09:36:56.160Z,13.61
2019-05-07T09:37:56.128Z,13.68
2019-05-07T09:38:59.234Z,13.63
2019-05-07T09:39:56.092Z,13.63
2019-05-07T09:40:57.056Z,13.71
2019-05-07T09:41:56.085Z,13.79
2019-05-07T09:42:56.096Z,13.76
2019-05-07T09:43:56.065Z,13.96
2019-05-07T09:44:56.044Z,13.90
2019-05-07T09:45:56.030Z,14.02
2019-05-07T09:46:56.018Z,14.06
2019-05-07T09:47:56.012Z,14.21
2019-05-07T09:48:56.006Z,14.31
2019-05-07T09:50:04.759Z,14.48
2019-05-07T09:50:56.974Z,14.48
2019-05-07T09:51:55.973Z,14.45
2019-05-07T09:52:55.954Z,14.45
2019-05-07T09:53:55.949Z,14.56
2019-05-07T09:54:55.957Z,14.67
2019-05-07T09:55:55.927Z,14.66
2019-05-07T09:56:55.911Z,14.71
2019-05-07T09:57:55.900Z,14.80
2019-05-07T09:58:55.930Z,14.83
2019-05-07T09:59:55.882Z,14.86
2019-05-07T10:00:55.873Z,14.98
2019-05-07T10:01:55.859Z,15.12
2019-05-07T10:02:56.772Z,15.11
2019-05-07T10:03:55.853Z,15.16
2019-05-07T10:04:55.827Z,15.25
2019-05-07T10:05:55.817Z,15.37
2019-05-07T10:06:55.810Z,15.48
2019-05-07T10:07:55.798Z,15.40
2019-05-07T10:08:55.816Z,15.46
2019-05-07T10:09:55.776Z,15.49
2019-05-07T10:10:55.765Z,15.60
2019-05-07T10:11:55.752Z,15.68
2019-05-07T10:12:55.752Z,15.76
2019-05-07T10:13:55.731Z,15.81
2019-05-07T10:14:55.767Z,15.86
2019-05-07T10:15:55.710Z,15.98
2019-05-07T10:16:55.700Z,16.06
2019-05-07T10:17:55.701Z,16.10
2019-05-07T10:18:55.688Z,16.14
2019-05-07T10:19:55.673Z,16.30
2019-05-07T10:20:55.661Z,16.32
2019-05-07T10:21:55.646Z,16.42
2019-05-07T10:22:55.636Z,16.50
2019-05-07T10:23:55.625Z,16.52
2019-05-07T10:24:55.617Z,16.66
2019-05-07T10:25:55.638Z,16.78
2019-05-07T10:26:55.593Z,16.85
2019-05-07T10:27:55.582Z,17.03
2019-05-07T10:28:55.573Z,17.18
2019-05-07T10:29:55.562Z,17.28
2019-05-07T10:30:55.609Z,17.38
2019-05-07T10:31:55.561Z,17.40
2019-05-07T10:32:55.530Z,17.27
2019-05-07T10:33:55.520Z,17.20
2019-05-07T10:34:55.531Z,17.07
2019-05-07T10:35:55.511Z,17.14
2019-05-07T10:36:55.525Z,17.14
2019-05-07T10:37:55.476Z,17.15
2019-05-07T10:38:55.464Z,17.20
2019-05-07T10:39:55.453Z,17.15
2019-05-07T10:40:55.444Z,17.21
2019-05-07T10:41:57.812Z,17.30
2019-05-07T10:42:55.421Z,17.30
2019-05-07T10:43:55.410Z,17.22
2019-05-07T10:44:55.400Z,17.14
2019-05-07T10:45:55.391Z,16.99
2019-05-07T10:46:55.378Z,16.91
2019-05-07T10:47:55.401Z,16.87
2019-05-07T10:48:55.360Z,16.96
2019-05-07T10:49:55.347Z,16.90
2019-05-07T10:50:55.337Z,17.09
2019-05-07T10:51:55.332Z,17.12
2019-05-07T10:52:55.316Z,17.24
2019-05-07T10:53:55.322Z,17.21
2019-05-07T10:54:59.610Z,17.18
2019-05-07T10:55:55.283Z,17.24
2019-05-07T10:56:55.276Z,17.25
2019-05-07T10:57:55.262Z,17.32
2019-05-07T10:58:55.265Z,17.28
2019-05-07T10:59:55.260Z,17.43
2019-05-07T11:00:55.230Z,17.42
2019-05-07T11:01:55.219Z,17.55
2019-05-07T11:02:55.208Z,17.40
2019-05-07T11:03:55.232Z,17.46
2019-05-07T11:04:55.189Z,17.71
2019-05-07T11:05:55.179Z,17.92
2019-05-07T11:06:55.168Z,18.29
2019-05-07T11:07:55.158Z,18.54
2019-05-07T11:08:55.148Z,18.66
2019-05-07T11:09:55.148Z,18.74
2019-05-07T11:10:55.140Z,18.76
2019-05-07T11:11:55.115Z,18.91
2019-05-07T11:12:55.104Z,19.07
2019-05-07T11:13:56.113Z,19.21
2019-05-07T11:14:55.100Z,19.25
2019-05-07T11:15:55.092Z,19.58
2019-05-07T11:16:55.061Z,19.70
2019-05-07T11:17:55.050Z,19.87
2019-05-07T11:18:55.050Z,20.12
2019-05-07T11:19:55.061Z,20.15
2019-05-07T11:20:55.017Z,20.23
2019-05-07T11:21:55.007Z,20.22
2019-05-07T11:22:54.997Z,20.22
2019-05-07T11:23:54.988Z,19.92
2019-05-07T11:24:54.979Z,19.79
2019-05-07T11:25:54.979Z,19.57
2019-05-07T11:26:54.953Z,19.45
2019-05-07T11:27:54.943Z,19.27
2019-05-07T11:28:55.002Z,19.28
2019-05-07T11:29:54.926Z,18.87
2019-05-07T11:30:54.947Z,18.78
2019-05-07T11:31:54.900Z,18.68
2019-05-07T11:32:54.890Z,18.59
2019-05-07T11:33:54.881Z,18.50
2019-05-07T11:34:56.507Z,18.49
2019-05-07T11:35:54.876Z,18.47
2019-05-07T11:36:54.851Z,18.38
2019-05-07T11:37:54.841Z,18.38
2019-05-07T11:38:54.827Z,18.38
2019-05-07T11:39:54.817Z,18.42
2019-05-07T11:40:54.807Z,18.54
2019-05-07T11:41:54.836Z,18.53
2019-05-07T11:42:54.787Z,18.51
2019-05-07T11:43:54.775Z,18.60
2019-05-07T11:44:55.040Z,18.62
2019-05-07T11:45:54.753Z,18.68
2019-05-07T11:46:54.756Z,18.57
2019-05-07T11:47:54.743Z,18.66
2019-05-07T11:48:54.722Z,18.71
2019-05-07T11:49:54.709Z,18.82
2019-05-07T11:51:03.680Z,18.90
2019-05-07T11:51:55.705Z,18.93
2019-05-07T11:52:54.676Z,19.09
2019-05-07T11:53:54.665Z,19.30
2019-05-07T11:54:54.657Z,19.34
2019-05-07T11:55:54.648Z,19.62
2019-05-07T11:56:55.540Z,19.68
2019-05-07T11:57:54.628Z,19.65
2019-05-07T11:58:54.870Z,19.53
2019-05-07T11:59:54.602Z,19.53
2019-05-07T12:00:54.592Z,19.49
2019-05-07T12:01:54.607Z,19.39
2019-05-07T12:02:54.573Z,19.61
2019-05-07T12:03:54.564Z,19.76
2019-05-07T12:04:54.549Z,19.76
2019-05-07T12:05:54.539Z,19.72
2019-05-07T12:06:54.529Z,19.89
2019-05-07T12:07:54.541Z,19.80
2019-05-07T12:08:54.506Z,19.78
2019-05-07T12:09:54.498Z,19.78
2019-05-07T12:10:54.488Z,19.87
2019-05-07T12:11:54.475Z,19.90
2019-05-07T12:12:54.498Z,20.16
2019-05-07T12:13:57.231Z,20.00
2019-05-07T12:14:54.444Z,20.35
2019-05-07T12:15:54.444Z,20.37
2019-05-07T12:16:54.422Z,20.64
2019-05-07T12:17:54.413Z,20.85
2019-05-07T12:18:55.448Z,21.30
2019-05-07T12:19:54.391Z,21.67
2019-05-07T12:20:54.379Z,22.33
2019-05-07T12:21:54.372Z,23.16
2019-05-07T12:22:54.369Z,24.02
2019-05-07T12:23:54.377Z,24.90
2019-05-07T12:24:54.340Z,26.12
2019-05-07T12:25:54.334Z,27.25
2019-05-07T12:26:54.319Z,28.30
2019-05-07T12:27:54.344Z,28.79
2019-05-07T12:28:54.298Z,29.08
2019-05-07T12:29:54.293Z,30.34
2019-05-07T12:30:54.278Z,30.25
2019-05-07T12:31:55.759Z,30.30
2019-05-07T12:32:54.260Z,30.32
2019-05-07T12:33:54.254Z,31.60
2019-05-07T12:34:54.242Z,33.00
2019-05-07T12:35:54.230Z,32.07
2019-05-07T12:36:54.221Z,30.64
2019-05-07T12:37:54.213Z,30.37
2019-05-07T12:38:54.205Z,31.84
2019-05-07T12:39:54.219Z,33.40
2019-05-07T12:40:54.182Z,32.39
2019-05-07T12:41:54.171Z,32.66
2019-05-07T12:42:54.161Z,34.08
2019-05-07T12:43:54.152Z,34.98
2019-05-07T12:44:54.142Z,35.17
2019-05-07T12:45:54.143Z,35.98
2019-05-07T12:46:54.123Z,36.30
2019-05-07T12:47:54.117Z,36.75
2019-05-07T12:48:54.103Z,36.94
2019-05-07T12:49:54.099Z,36.83
2019-05-07T12:50:54.086Z,37.72
2019-05-07T12:51:54.075Z,38.98
2019-05-07T12:52:54.066Z,39.68
2019-05-07T12:53:54.056Z,40.24
2019-05-07T12:54:54.066Z,40.31
2019-05-07T12:55:54.039Z,40.25
2019-05-07T12:56:54.031Z,40.39
2019-05-07T12:57:54.020Z,41.20
2019-05-07T12:58:54.011Z,38.87
2019-05-07T12:59:54.014Z,36.50
2019-05-07T13:00:53.994Z,34.93
2019-05-07T13:01:53.987Z,34.65
2019-05-07T13:02:53.978Z,37.18
2019-05-07T13:03:53.968Z,39.17
2019-05-07T13:04:53.960Z,40.29
2019-05-07T13:05:53.950Z,41.17